createdAt,value
2019-03-28T00:00:34.247Z,9.15
2019-03-28T00:03:08.266Z,9.23
2019-03-28T00:05:41.010Z,9.19
2019-03-28T00:08:13.634Z,9.23
2019-03-28T00:10:46.406Z,9.35
2019-03-28T00:13:19.321Z,9.25
2019-03-28T00:15:53.529Z,9.21
2019-03-28T00:18:26.360Z,9.15
2019-03-28T00:21:02.068Z,9.14
2019-03-28T00:23:55.281Z,9.21
2019-03-28T00:26:37.699Z,9.20
2019-03-28T00:29:07.027Z,9.13
2019-03-28T00:31:41.377Z,9.06
2019-03-28T00:34:17.099Z,9.05
2019-03-28T00:36:49.917Z,9.13
2019-03-28T00:39:28.430Z,9.09
2019-03-28T00:42:06.299Z,9.08
2019-03-28T00:44:43.481Z,9.06
2019-03-28T00:47:27.369Z,9.12
2019-03-28T00:50:00.184Z,9.15
2019-03-28T00:52:35.324Z,9.17
2019-03-28T00:55:08.333Z,9.14
2019-03-28T00:57:42.323Z,9.24
2019-03-28T01:00:16.340Z,9.16
2019-03-28T01:02:49.113Z,9.16
2019-03-28T01:05:21.804Z,9.17
2019-03-28T01:07:59.598Z,9.19
2019-03-28T01:10:33.913Z,9.20
2019-03-28T01:13:06.730Z,9.15
2019-03-28T01:15:41.068Z,9.16
2019-03-28T01:18:13.851Z,9.01
2019-03-28T01:20:46.616Z,8.95
2019-03-28T01:23:21.878Z,9.01
2019-03-28T01:25:54.664Z,8.93
2019-03-28T01:28:27.496Z,8.96
2019-03-28T01:31:00.250Z,8.93
2019-03-28T01:33:32.970Z,8.85
2019-03-28T01:36:07.444Z,8.86
2019-03-28T01:38:40.096Z,8.87
2019-03-28T01:41:12.898Z,8.72
2019-03-28T01:43:45.612Z,8.74
2019-03-28T01:46:18.496Z,8.69
2019-03-28T01:48:55.185Z,8.74
2019-03-28T01:51:28.008Z,8.62
2019-03-28T01:54:03.745Z,8.60
2019-03-28T01:56:39.214Z,8.57
2019-03-28T01:59:14.780Z,8.69
2019-03-28T02:01:49.100Z,8.66
2019-03-28T02:04:24.870Z,8.67
2019-03-28T02:06:59.960Z,8.58
2019-03-28T02:09:32.758Z,8.62
2019-03-28T02:12:09.240Z,8.66
2019-03-28T02:14:46.553Z,8.67
2019-03-28T02:17:25.134Z,8.63
2019-03-28T02:20:04.754Z,8.64
2019-03-28T02:22:42.703Z,8.54
2019-03-28T02:25:15.501Z,8.57
2019-03-28T02:27:52.707Z,8.60
2019-03-28T02:30:35.049Z,8.65
2019-03-28T02:33:07.737Z,8.58
2019-03-28T02:35:40.550Z,8.58
2019-03-28T02:38:14.200Z,8.57
2019-03-28T02:40:53.468Z,8.71
2019-03-28T02:43:28.998Z,8.58
2019-03-28T02:46:03.233Z,8.64
2019-03-28T02:48:38.450Z,8.62
2019-03-28T02:51:11.343Z,8.63
2019-03-28T02:53:45.483Z,8.57
2019-03-28T02:56:21.033Z,8.59
2019-03-28T02:58:55.357Z,8.58
2019-03-28T03:01:30.315Z,8.72
2019-03-28T03:04:05.475Z,8.64
2019-03-28T03:06:38.320Z,8.67
2019-03-28T03:09:14.097Z,8.64
2019-03-28T03:11:49.103Z,8.63
2019-03-28T03:14:21.770Z,8.64
2019-03-28T03:16:56.340Z,8.60
2019-03-28T03:19:29.055Z,8.58
2019-03-28T03:22:02.827Z,8.69
2019-03-28T03:24:36.194Z,8.67
2019-03-28T03:27:09.253Z,8.55
2019-03-28T03:29:42.960Z,8.62
2019-03-28T03:32:15.618Z,8.58
2019-03-28T03:34:48.389Z,8.66
2019-03-28T03:37:21.118Z,8.63
2019-03-28T03:39:53.781Z,8.62
2019-03-28T03:42:26.491Z,8.73
2019-03-28T03:44:59.182Z,8.65
2019-03-28T03:47:31.959Z,8.61
2019-03-28T03:50:05.091Z,8.71
2019-03-28T03:52:37.791Z,8.63
2019-03-28T03:55:10.548Z,8.64
2019-03-28T03:57:43.260Z,8.60
2019-03-28T04:00:20.429Z,8.67
2019-03-28T04:02:53.063Z,8.63
2019-03-28T04:05:25.783Z,8.61
2019-03-28T04:07:59.343Z,8.66
2019-03-28T04:10:32.669Z,8.61
2019-03-28T04:13:06.464Z,8.57
2019-03-28T04:15:39.205Z,8.61
2019-03-28T04:18:11.872Z,8.60
2019-03-28T04:20:44.516Z,8.63
2019-03-28T04:23:17.257Z,8.58
2019-03-28T04:25:49.953Z,8.63
2019-03-28T04:28:31.383Z,8.67
2019-03-28T04:30:57.135Z,8.69
2019-03-28T04:33:29.888Z,8.65
2019-03-28T04:36:02.529Z,8.70
2019-03-28T04:38:35.267Z,8.66
2019-03-28T04:41:07.915Z,8.66
2019-03-28T04:43:40.709Z,8.67
2019-03-28T04:46:13.415Z,8.72
2019-03-28T04:48:46.307Z,8.73
2019-03-28T04:51:19.044Z,8.73
2019-03-28T04:53:51.831Z,8.71
2019-03-28T04:56:24.591Z,8.73
2019-03-28T04:58:58.260Z,8.73
2019-03-28T05:04:34.139Z,8.83
2019-03-28T05:07:07.578Z,8.81
2019-03-28T05:09:41.332Z,8.77
2019-03-28T05:12:14.852Z,8.81
2019-03-28T05:14:48.139Z,8.93
2019-03-28T05:17:21.180Z,8.87
2019-03-28T05:19:54.340Z,8.85
2019-03-28T05:22:27.466Z,8.90
2019-03-28T05:25:00.786Z,8.93
2019-03-28T05:27:33.906Z,8.87
2019-03-28T05:30:10.045Z,8.89
2019-03-28T05:32:45.917Z,8.92
2019-03-28T05:35:18.914Z,8.98
2019-03-28T05:37:53.803Z,8.96
2019-03-28T05:40:27.583Z,9.02
2019-03-28T05:43:01.563Z,8.94
2019-03-28T05:45:34.471Z,8.97
2019-03-28T05:48:07.290Z,9.04
2019-03-28T05:50:40.084Z,9.02
2019-03-28T05:53:13.031Z,9.04
2019-03-28T05:55:45.902Z,9.12
2019-03-28T05:58:18.748Z,9.14
2019-03-28T06:00:51.583Z,9.15
2019-03-28T06:03:24.535Z,9.19
2019-03-28T06:05:57.444Z,9.18
2019-03-28T06:08:30.200Z,9.21
2019-03-28T06:11:03.193Z,9.23
2019-03-28T06:13:35.988Z,9.17
2019-03-28T06:16:08.683Z,9.18
2019-03-28T06:18:41.500Z,9.22
2019-03-28T06:21:14.194Z,9.17
2019-03-28T06:23:46.852Z,9.17
2019-03-28T06:26:19.635Z,9.25
2019-03-28T06:28:52.383Z,9.29
2019-03-28T06:31:25.271Z,9.30
2019-03-28T06:33:58.104Z,9.35
2019-03-28T06:36:35.478Z,9.48
2019-03-28T06:39:14.344Z,9.50
2019-03-28T06:41:51.529Z,9.60
2019-03-28T06:44:24.257Z,9.66
2019-03-28T06:46:57.346Z,9.68
2019-03-28T06:49:31.749Z,9.76
2019-03-28T06:52:09.981Z,9.79
2019-03-28T06:54:43.018Z,9.84
2019-03-28T06:57:18.938Z,9.93
2019-03-28T06:59:51.422Z,10.13
2019-03-28T07:02:27.204Z,10.17
2019-03-28T07:05:00.030Z,10.19
2019-03-28T07:07:33.162Z,10.12
2019-03-28T07:10:10.550Z,10.06
2019-03-28T07:12:47.677Z,10.09
2019-03-28T07:15:20.590Z,10.08
2019-03-28T07:17:53.680Z,10.02
2019-03-28T07:20:26.605Z,10.12
2019-03-28T07:23:00.968Z,10.13
2019-03-28T07:25:36.510Z,10.11
2019-03-28T07:28:09.533Z,10.01
2019-03-28T07:30:42.592Z,9.97
2019-03-28T07:33:16.975Z,10.05
2019-03-28T07:35:50.737Z,10.08
2019-03-28T07:38:23.419Z,10.20
2019-03-28T07:40:59.259Z,10.25
2019-03-28T07:43:32.049Z,10.27
2019-03-28T07:46:05.037Z,10.37
2019-03-28T07:48:37.837Z,10.55
2019-03-28T07:52:03.462Z,10.69
2019-03-28T07:54:54.277Z,10.74
2019-03-28T07:57:46.789Z,10.82
2019-03-28T08:00:19.587Z,10.85
2019-03-28T08:02:54.876Z,10.99
2019-03-28T08:05:28.079Z,10.93
2019-03-28T08:08:01.215Z,10.85
2019-03-28T08:10:34.299Z,10.81
2019-03-28T08:13:14.093Z,10.86
2019-03-28T08:15:59.667Z,10.89
2019-03-28T08:19:07.986Z,10.89
2019-03-28T08:21:44.676Z,10.37
2019-03-28T08:24:22.510Z,10.66
2019-03-28T08:26:59.691Z,10.63
2019-03-28T08:29:34.010Z,10.58
2019-03-28T08:32:15.006Z,10.54
2019-03-28T08:34:50.921Z,10.56
2019-03-28T08:37:27.212Z,10.47
2019-03-28T08:40:10.059Z,10.47
2019-03-28T08:42:44.714Z,10.52
2019-03-28T08:45:18.996Z,10.69
2019-03-28T08:47:52.088Z,10.89
2019-03-28T08:50:24.964Z,11.34
2019-03-28T08:52:57.914Z,11.44
2019-03-28T08:55:31.230Z,11.50
2019-03-28T08:58:33.912Z,11.32
2019-03-28T09:01:30.353Z,11.50
2019-03-28T09:04:03.247Z,11.79
2019-03-28T09:06:36.105Z,12.02
2019-03-28T09:09:11.513Z,11.92
2019-03-28T09:11:44.380Z,11.67
2019-03-28T09:14:34.353Z,11.58
2019-03-28T09:17:08.110Z,11.75
2019-03-28T09:19:48.188Z,11.76
2019-03-28T09:22:21.016Z,11.85
2019-03-28T09:24:53.804Z,11.86
2019-03-28T09:27:26.590Z,11.62
2019-03-28T09:29:59.365Z,11.52
2019-03-28T09:32:35.686Z,11.56
2019-03-28T09:35:09.702Z,11.64
2019-03-28T09:37:42.592Z,11.63
2019-03-28T09:40:15.372Z,11.44
2019-03-28T09:42:48.324Z,11.35
2019-03-28T09:45:21.248Z,11.44
2019-03-28T09:47:54.130Z,11.41
2019-03-28T09:50:27.211Z,11.42
2019-03-28T09:53:00.743Z,11.71
2019-03-28T09:55:34.220Z,11.82
2019-03-28T09:58:22.778Z,12.13
2019-03-28T10:01:02.799Z,12.43
2019-03-28T10:03:34.239Z,12.40
2019-03-28T10:06:07.202Z,12.35
2019-03-28T10:08:39.968Z,12.17
2019-03-28T10:11:12.762Z,12.08
2019-03-28T10:13:45.647Z,11.98
2019-03-28T10:16:18.549Z,11.86
2019-03-28T10:18:51.336Z,11.73
2019-03-28T10:21:24.115Z,11.67
2019-03-28T10:23:56.902Z,11.79
2019-03-28T10:26:29.701Z,11.92
2019-03-28T10:29:02.584Z,11.82
2019-03-28T10:31:35.670Z,11.78
2019-03-28T10:34:08.552Z,12.07
2019-03-28T10:36:41.304Z,12.33
2019-03-28T10:39:14.225Z,12.62
2019-03-28T10:41:47.450Z,12.61
2019-03-28T10:44:20.360Z,12.90
2019-03-28T10:46:53.199Z,12.77
2019-03-28T10:49:26.076Z,12.27
2019-03-28T10:52:04.180Z,12.13
2019-03-28T10:54:40.584Z,12.09
2019-03-28T10:57:28.706Z,12.20
2019-03-28T10:59:48.124Z,12.59
2019-03-28T11:02:21.045Z,12.77
2019-03-28T11:05:21.276Z,13.01
2019-03-28T11:07:54.510Z,13.49
2019-03-28T11:10:30.404Z,13.57
2019-03-28T11:13:42.619Z,13.92
2019-03-28T11:16:18.322Z,13.92
2019-03-28T11:18:53.687Z,14.18
2019-03-28T11:21:50.213Z,14.15
2019-03-28T11:24:26.878Z,14.14
2019-03-28T11:27:02.787Z,13.75
2019-03-28T11:29:36.941Z,13.83
2019-03-28T11:32:09.763Z,13.75
2019-03-28T11:34:44.414Z,13.55
2019-03-28T11:37:25.959Z,13.32
2019-03-28T11:39:57.893Z,13.03
2019-03-28T11:42:34.337Z,12.44
2019-03-28T11:45:09.478Z,12.19
2019-03-28T11:47:44.365Z,12.09
2019-03-28T11:50:17.742Z,12.06
2019-03-28T11:52:51.742Z,12.31
2019-03-28T11:55:24.677Z,12.70
2019-03-28T11:57:57.492Z,13.21
2019-03-28T12:00:30.461Z,13.62
2019-03-28T12:03:03.353Z,13.49
2019-03-28T12:05:36.297Z,13.27
2019-03-28T12:08:10.317Z,12.93
2019-03-28T12:10:43.157Z,12.85
2019-03-28T12:13:17.367Z,12.72
2019-03-28T12:15:50.914Z,12.77
2019-03-28T12:18:25.205Z,12.99
2019-03-28T12:20:58.325Z,13.22
2019-03-28T12:23:31.199Z,13.25
2019-03-28T12:26:05.315Z,13.07
2019-03-28T12:28:38.167Z,13.27
2019-03-28T12:31:10.970Z,13.23
2019-03-28T12:33:43.791Z,13.07
2019-03-28T12:36:16.686Z,12.91
2019-03-28T12:38:49.990Z,12.76
2019-03-28T12:41:22.771Z,12.44
2019-03-28T12:43:55.629Z,12.31
2019-03-28T12:46:28.533Z,12.31
2019-03-28T12:49:01.425Z,12.18
2019-03-28T12:51:34.269Z,11.94
2019-03-28T12:54:14.324Z,11.83
2019-03-28T12:56:47.202Z,11.94
2019-03-28T12:59:20.027Z,11.78
2019-03-28T13:01:55.139Z,11.57
2019-03-28T13:04:27.435Z,11.72
2019-03-28T13:07:00.247Z,11.89
2019-03-28T13:09:33.255Z,12.02
2019-03-28T13:12:08.205Z,12.04
2019-03-28T13:14:41.071Z,11.98
2019-03-28T13:17:14.026Z,12.04
2019-03-28T13:19:47.056Z,11.98
2019-03-28T13:22:19.876Z,11.88
2019-03-28T13:24:55.940Z,11.90
2019-03-28T13:27:28.762Z,11.84
2019-03-28T13:30:02.286Z,12.20
2019-03-28T13:32:41.780Z,12.24
2019-03-28T13:35:10.788Z,12.27
2019-03-28T13:37:43.574Z,12.33
2019-03-28T13:40:17.182Z,12.47
2019-03-28T13:42:52.862Z,12.25
2019-03-28T13:45:27.568Z,11.88
2019-03-28T13:48:05.620Z,10.96
2019-03-28T13:50:38.574Z,11.69
2019-03-28T13:53:13.232Z,11.60
2019-03-28T13:55:46.167Z,11.70
2019-03-28T13:58:18.894Z,11.76
2019-03-28T14:00:54.423Z,12.00
2019-03-28T14:03:26.260Z,12.36
2019-03-28T14:05:59.371Z,12.48
2019-03-28T14:08:38.328Z,12.47
2019-03-28T14:11:18.647Z,12.51
2019-03-28T14:13:51.526Z,12.43
2019-03-28T14:16:24.372Z,12.32
2019-03-28T14:18:57.318Z,12.30
2019-03-28T14:21:36.574Z,12.27
2019-03-28T14:24:12.382Z,12.32
2019-03-28T14:26:45.325Z,12.13
2019-03-28T14:29:20.495Z,12.11
2019-03-28T14:32:10.414Z,12.04
2019-03-28T14:34:49.514Z,12.05
2019-03-28T14:37:22.469Z,12.16
2019-03-28T14:39:56.802Z,12.32
2019-03-28T14:42:32.449Z,12.24
2019-03-28T14:45:05.738Z,12.34
2019-03-28T14:47:38.759Z,12.22
2019-03-28T14:50:15.173Z,12.07
2019-03-28T14:52:48.135Z,12.06
2019-03-28T14:55:21.386Z,11.95
2019-03-28T14:58:11.563Z,12.03
2019-03-28T15:00:58.405Z,11.96
2019-03-28T15:03:34.928Z,11.91
2019-03-28T15:06:12.045Z,11.76
2019-03-28T15:09:19.001Z,11.77
2019-03-28T15:11:30.546Z,11.73
2019-03-28T15:14:48.729Z,11.74
2019-03-28T15:18:33.997Z,11.64
2019-03-28T15:22:21.789Z,11.55
2019-03-28T15:41:55.134Z,11.56
2019-03-28T15:44:29.797Z,11.43
2019-03-28T15:47:34.085Z,11.28
2019-03-28T15:50:15.696Z,11.18
2019-03-28T15:53:13.415Z,11.07
2019-03-28T15:59:37.283Z,10.95
2019-03-28T16:02:11.310Z,11.05
2019-03-28T16:04:44.491Z,11.10
2019-03-28T16:07:18.276Z,11.06
2019-03-28T16:09:52.088Z,11.09
2019-03-28T16:12:31.252Z,11.15
2019-03-28T16:15:22.502Z,11.16
2019-03-28T16:18:00.276Z,11.21
2019-03-28T16:20:34.539Z,11.33
2019-03-28T16:23:10.720Z,11.30
2019-03-28T16:25:44.185Z,11.30
2019-03-28T16:28:18.864Z,11.31
2019-03-28T16:30:51.953Z,11.22
2019-03-28T16:33:29.344Z,11.24
2019-03-28T16:36:02.518Z,11.26
2019-03-28T16:38:39.430Z,11.21
2019-03-28T16:41:27.689Z,11.20
2019-03-28T16:44:00.711Z,11.16
2019-03-28T16:46:34.281Z,11.11
2019-03-28T16:49:10.694Z,11.09
2019-03-28T16:51:44.773Z,10.91
2019-03-28T16:54:17.573Z,10.90
2019-03-28T16:56:50.365Z,10.85
2019-03-28T16:59:24.555Z,10.94
2019-03-28T17:01:57.946Z,10.85
2019-03-28T17:04:30.910Z,10.80
2019-03-28T17:07:09.002Z,10.81
2019-03-28T17:09:42.392Z,10.79
2019-03-28T17:12:15.696Z,10.72
2019-03-28T17:14:51.823Z,10.63
2019-03-28T17:17:24.951Z,10.69
2019-03-28T17:19:59.846Z,10.61
2019-03-28T17:22:32.968Z,10.53
2019-03-28T17:25:24.464Z,10.45
2019-03-28T17:28:01.155Z,10.39
2019-03-28T17:30:34.105Z,10.43
2019-03-28T17:33:07.014Z,10.39
2019-03-28T17:35:39.897Z,10.42
2019-03-28T17:38:16.759Z,10.38
2019-03-28T17:40:52.972Z,10.47
2019-03-28T17:43:25.966Z,10.42
2019-03-28T17:55:08.424Z,10.28
2019-03-28T17:57:41.441Z,10.29
2019-03-28T18:00:15.885Z,10.21
2019-03-28T18:02:48.673Z,10.20
2019-03-28T18:05:21.608Z,10.26
2019-03-28T18:07:54.397Z,10.18
2019-03-28T18:10:27.162Z,10.13
2019-03-28T18:13:00.888Z,10.11
2019-03-28T18:15:33.944Z,10.09
2019-03-28T18:18:06.712Z,10.03
2019-03-28T18:20:39.673Z,10.00
2019-03-28T18:23:12.551Z,10.06
2019-03-28T18:25:47.818Z,10.10
2019-03-28T18:28:20.602Z,10.07
2019-03-28T18:30:53.837Z,10.02
2019-03-28T18:33:26.638Z,10.06
2019-03-28T18:36:00.080Z,10.03
2019-03-28T18:38:33.589Z,10.08
2019-03-28T18:41:06.507Z,10.05
2019-03-28T18:43:42.436Z,9.98
2019-03-28T18:46:15.304Z,9.97
2019-03-28T18:48:48.136Z,9.98
2019-03-28T18:51:22.155Z,10.05
2019-03-28T18:53:55.011Z,9.99
2019-03-28T18:56:28.127Z,9.97
2019-03-28T18:59:08.316Z,10.00
2019-03-28T19:01:40.157Z,9.96
2019-03-28T19:04:15.386Z,9.96
2019-03-28T19:06:48.695Z,9.96
2019-03-28T19:09:22.120Z,9.98
2019-03-28T19:11:56.141Z,9.98
2019-03-28T19:14:31.760Z,9.95
2019-03-28T19:17:05.120Z,9.94
2019-03-28T19:19:39.742Z,9.98
2019-03-28T19:22:13.179Z,9.96
2019-03-28T19:24:46.566Z,10.02
2019-03-28T19:27:21.314Z,9.98
2019-03-28T19:29:54.607Z,9.99
2019-03-28T19:32:30.087Z,9.92
2019-03-28T19:35:03.536Z,9.88
2019-03-28T19:37:37.798Z,9.92
2019-03-28T19:40:13.372Z,9.97
2019-03-28T19:42:46.388Z,10.00
2019-03-28T19:45:39.351Z,10.02
2019-03-28T19:48:23.641Z,10.02
2019-03-28T19:51:09.343Z,10.04
2019-03-28T19:53:42.205Z,10.01
2019-03-28T19:56:15.074Z,10.01
2019-03-28T19:58:47.745Z,10.04
2019-03-28T20:01:20.485Z,10.07
2019-03-28T20:03:53.295Z,10.07
2019-03-28T20:06:26.363Z,10.07
2019-03-28T20:09:00.697Z,10.03
2019-03-28T20:11:35.329Z,10.02
2019-03-28T20:14:08.352Z,10.23
2019-03-28T20:16:41.587Z,10.02
2019-03-28T20:19:17.745Z,10.04
2019-03-28T20:21:51.110Z,10.10
2019-03-28T20:24:25.416Z,10.10
2019-03-28T20:26:59.967Z,10.11
2019-03-28T20:29:33.513Z,9.98
2019-03-28T20:32:08.380Z,10.00
2019-03-28T20:34:42.874Z,9.86
2019-03-28T20:37:16.328Z,10.00
2019-03-28T20:39:51.474Z,9.96
2019-03-28T20:42:24.308Z,9.94
2019-03-28T20:44:58.450Z,9.92
2019-03-28T20:47:32.422Z,9.81
2019-03-28T20:50:07.882Z,9.79
2019-03-28T20:52:40.714Z,9.81
2019-03-28T20:55:13.702Z,9.79
2019-03-28T20:57:46.564Z,9.80
2019-03-28T21:00:36.394Z,9.86
2019-03-28T21:03:09.289Z,9.81
2019-03-28T21:05:42.370Z,9.83
2019-03-28T21:08:15.872Z,9.91
2019-03-28T21:10:48.655Z,9.91
2019-03-28T21:13:21.379Z,9.89
2019-03-28T21:15:54.258Z,9.91
2019-03-28T21:18:27.151Z,9.87
2019-03-28T21:21:00.120Z,9.87
2019-03-28T21:23:33.416Z,9.91
2019-03-28T21:29:10.074Z,9.88
2019-03-28T21:31:49.689Z,9.88
2019-03-28T21:34:17.543Z,9.98
2019-03-28T21:36:50.342Z,9.92
2019-03-28T21:39:23.277Z,9.84
2019-03-28T21:41:55.971Z,9.82
2019-03-28T21:44:28.779Z,9.84
2019-03-28T21:47:01.716Z,9.78
2019-03-28T21:49:34.987Z,9.75
2019-03-28T21:52:08.126Z,9.77
2019-03-28T21:54:40.942Z,9.74
2019-03-28T21:57:14.746Z,9.73
2019-03-28T21:59:48.305Z,9.73
2019-03-28T22:02:24.757Z,9.74
2019-03-28T22:04:57.960Z,9.74
2019-03-28T22:07:30.948Z,9.82
2019-03-28T22:10:03.834Z,9.89
2019-03-28T22:12:36.691Z,9.93
2019-03-28T22:15:10.468Z,9.88
2019-03-28T22:17:43.389Z,9.92
2019-03-28T22:20:16.518Z,9.79
2019-03-28T22:22:50.196Z,9.68
2019-03-28T22:25:25.350Z,9.56
2019-03-28T22:27:58.444Z,9.60
2019-03-28T22:30:31.491Z,9.54
2019-03-28T22:33:04.411Z,9.58
2019-03-28T22:35:37.354Z,9.50
2019-03-28T22:38:10.129Z,9.55
2019-03-28T22:40:43.954Z,9.50
2019-03-28T22:43:17.045Z,9.49
2019-03-28T22:45:49.934Z,9.46
2019-03-28T22:48:22.709Z,9.49
2019-03-28T22:50:55.529Z,9.47
2019-03-28T22:53:28.321Z,9.41
2019-03-28T22:56:01.129Z,9.40
2019-03-28T22:58:34.354Z,9.41
2019-03-28T23:01:07.949Z,9.44
2019-03-28T23:03:40.788Z,9.50
2019-03-28T23:06:13.551Z,9.51
2019-03-28T23:08:46.329Z,9.64
2019-03-28T23:11:18.987Z,9.58
2019-03-28T23:13:54.785Z,9.56
2019-03-28T23:16:28.216Z,9.60
2019-03-28T23:19:01.484Z,9.62
2019-03-28T23:21:34.189Z,9.62
2019-03-28T23:24:06.820Z,9.59
2019-03-28T23:26:39.643Z,9.59
2019-03-28T23:29:12.509Z,9.54
2019-03-28T23:31:45.313Z,9.52
2019-03-28T23:34:18.053Z,9.50
2019-03-28T23:36:50.873Z,9.46
2019-03-28T23:39:23.597Z,9.44
2019-03-28T23:41:56.306Z,9.42
2019-03-28T23:44:29.087Z,9.43
2019-03-28T23:47:01.803Z,9.43
2019-03-28T23:49:34.489Z,9.40
2019-03-28T23:52:07.209Z,9.38
2019-03-28T23:54:39.974Z,9.39
2019-03-28T23:57:12.685Z,9.40
2019-03-28T23:59:45.477Z,9.42
